Time;durP1;ratioP1;P1;durP2;ratioP2;P2;SDS_P1;SDS_P2;PMS_P1;PMS_P2;Temp;Humidity;BMP_temperature;BMP_pressure;BME280_temperature;BME280_humidity;BME280_pressure;Samples;Min_cycle;Max_cycle;Signal;HPM_P1;HPM_P2
2022/03/22 00:00:07;;;;;;;40.72;25.17;;;11.70;69.80;;;;;;5055631;28;20031;-77
2022/03/22 00:02:33;;;;;;;41.67;24.93;;;11.70;69.80;;;;;;5055313;28;20056;-77
2022/03/22 00:04:58;;;;;;;37.45;24.30;;;11.70;69.90;;;;;;5039166;28;20052;-77
2022/03/22 00:07:24;;;;;;;38.43;25.43;;;11.70;70.00;;;;;;5022527;28;20124;-77
2022/03/22 00:09:50;;;;;;;37.33;23.30;;;11.70;70.00;;;;;;5038918;28;20465;-77
2022/03/22 00:12:16;;;;;;;33.67;22.77;;;11.70;70.00;;;;;;5073539;28;20028;-78
2022/03/22 00:14:43;;;;;;;34.77;23.10;;;11.60;70.10;;;;;;5055509;28;20052;-77
2022/03/22 00:17:09;;;;;;;35.73;24.27;;;11.60;70.00;;;;;;5056078;28;20112;-77
2022/03/22 00:19:35;;;;;;;38.23;25.13;;;11.60;70.30;;;;;;5039551;28;20048;-76
2022/03/22 00:22:02;;;;;;;35.30;23.33;;;11.60;70.30;;;;;;5055815;28;20104;-77
2022/03/22 00:24:28;;;;;;;33.60;22.90;;;11.60;70.20;;;;;;5073541;28;20090;-77
2022/03/22 00:26:54;;;;;;;37.42;23.83;;;11.60;70.20;;;;;;5022712;28;20035;-77
2022/03/22 00:29:20;;;;;;;34.03;22.50;;;11.60;70.20;;;;;;5038777;28;20460;-77
2022/03/22 00:31:45;;;;;;;36.23;24.33;;;11.50;70.20;;;;;;5055309;28;20127;-77
2022/03/22 00:34:13;;;;;;;39.07;23.27;;;11.50;70.30;;;;;;5055168;28;20052;-77
2022/03/22 00:36:40;;;;;;;34.30;23.53;;;11.50;70.30;;;;;;5073026;28;20067;-77
2022/03/22 00:39:05;;;;;;;40.80;23.53;;;11.50;70.70;;;;;;5055524;28;20029;-77
2022/03/22 00:41:31;;;;;;;41.87;23.80;;;11.50;70.60;;;;;;5089870;28;20388;-74
2022/03/22 00:43:57;;;;;;;36.63;24.07;;;11.50;70.50;;;;;;5058129;28;20029;-74
2022/03/22 00:46:23;;;;;;;36.33;22.83;;;11.50;70.70;;;;;;5093048;28;20488;-76
2022/03/22 00:48:49;;;;;;;36.73;22.70;;;11.50;70.80;;;;;;5075006;28;20036;-76
2022/03/22 00:51:15;;;;;;;36.27;23.73;;;11.40;70.80;;;;;;5075190;28;20106;-76
2022/03/22 00:53:41;;;;;;;35.90;24.50;;;11.40;70.90;;;;;;5075406;28;20385;-76
2022/03/22 00:56:08;;;;;;;40.57;24.13;;;11.40;70.90;;;;;;5058645;28;20070;-76
2022/03/22 00:58:34;;;;;;;34.83;22.13;;;11.40;71.10;;;;;;5058443;28;20074;-76
2022/03/22 01:01:01;;;;;;;41.67;22.93;;;11.30;71.10;;;;;;5093196;28;20519;-76
2022/03/22 01:03:28;;;;;;;34.87;23.13;;;11.30;71.30;;;;;;5093108;28;20043;-76
2022/03/22 01:05:55;;;;;;;37.13;22.97;;;11.30;71.20;;;;;;5075097;28;20082;-76
2022/03/22 01:08:21;;;;;;;35.00;22.37;;;11.30;71.30;;;;;;5093108;28;20055;-76
2022/03/22 01:10:52;;;;;;;39.10;24.17;;;11.30;71.30;;;;;;5074931;28;20064;-76
2022/03/22 01:13:21;;;;;;;39.83;23.53;;;11.20;71.30;;;;;;5075975;28;20046;-76
2022/03/22 01:15:47;;;;;;;35.23;24.63;;;11.20;71.30;;;;;;5077101;28;20031;-76
2022/03/22 01:18:13;;;;;;;35.07;24.00;;;11.20;71.30;;;;;;5078738;28;20031;-75
2022/03/22 01:20:46;;;;;;;35.97;24.77;;;11.20;71.60;;;;;;5078884;28;20032;-75
2022/03/22 01:23:13;;;;;;;33.80;22.98;;;11.10;71.40;;;;;;5096935;28;20029;-75
2022/03/22 01:25:41;;;;;;;39.97;25.03;;;11.10;71.60;;;;;;5078622;28;20035;-76
2022/03/22 01:28:11;;;;;;;37.20;25.00;;;11.10;71.70;;;;;;5096826;28;20070;-77
2022/03/22 01:30:38;;;;;;;41.07;25.20;;;11.10;71.70;;;;;;5078504;28;20032;-76
2022/03/22 01:33:04;;;;;;;41.67;26.47;;;11.10;71.80;;;;;;5096488;28;20055;-76
2022/03/22 01:35:30;;;;;;;39.80;24.33;;;11.00;71.70;;;;;;5078347;28;20035;-77
2022/03/22 01:37:57;;;;;;;37.50;24.57;;;11.00;71.80;;;;;;5078624;28;20025;-77
2022/03/22 01:40:25;;;;;;;35.67;23.27;;;10.90;71.80;;;;;;5079081;28;20448;-77
2022/03/22 01:42:51;;;;;;;37.50;24.07;;;10.90;72.00;;;;;;5097148;28;20086;-77
2022/03/22 01:45:17;;;;;;;36.03;23.83;;;10.90;72.20;;;;;;5096506;28;20472;-76
2022/03/22 01:47:45;;;;;;;34.37;23.43;;;10.90;72.20;;;;;;5078260;28;20032;-76
2022/03/22 01:50:14;;;;;;;33.00;22.80;;;10.90;72.30;;;;;;5078966;28;20387;-77
2022/03/22 01:52:42;;;;;;;36.87;23.87;;;10.80;72.30;;;;;;5096274;28;20020;-75
2022/03/22 01:55:09;;;;;;;36.43;22.67;;;10.80;72.40;;;;;;5062057;28;20034;-78
2022/03/22 01:57:35;;;;;;;37.53;22.97;;;10.80;72.50;;;;;;5096220;28;20028;-78
2022/03/22 02:00:05;;;;;;;34.13;21.77;;;10.70;72.50;;;;;;5078079;28;20039;-78
2022/03/22 02:08:01;;;;;;;34.87;21.67;;;10.70;72.90;;;;;;5096326;28;20438;-78
2022/03/22 02:10:27;;;;;;;34.53;22.80;;;10.70;72.80;;;;;;5096007;28;20047;-77
2022/03/22 02:12:53;;;;;;;32.40;21.37;;;10.60;72.80;;;;;;5095821;28;20056;-78
2022/03/22 02:15:19;;;;;;;33.23;22.30;;;10.60;72.90;;;;;;5095939;28;20058;-78
2022/03/22 02:17:45;;;;;;;33.30;22.83;;;10.60;73.10;;;;;;5077834;28;20028;-78
2022/03/22 02:20:15;;;;;;;32.53;21.80;;;10.50;73.20;;;;;;5095865;28;20024;-78
2022/03/22 02:23:05;;;;;;;29.33;21.13;;;10.50;73.30;;;;;;5077690;28;20032;-78
2022/03/22 02:25:35;;;;;;;35.03;21.50;;;10.50;73.40;;;;;;5044810;28;20097;-78
2022/03/22 02:28:03;;;;;;;33.50;22.00;;;10.50;73.50;;;;;;5077610;28;20032;-78
2022/03/22 02:30:30;;;;;;;35.53;21.23;;;10.50;73.60;;;;;;5095675;28;20035;-77
2022/03/22 02:32:59;;;;;;;34.57;22.27;;;10.40;73.70;;;;;;5095439;28;20123;-78
2022/03/22 02:35:25;;;;;;;37.93;22.57;;;10.40;73.70;;;;;;5095715;28;20495;-78
2022/03/22 02:37:51;;;;;;;36.63;21.80;;;10.40;73.80;;;;;;5095807;28;20024;-78
2022/03/22 02:40:18;;;;;;;32.40;21.33;;;10.40;73.80;;;;;;5095737;28;20016;-78
2022/03/22 02:42:50;;;;;;;34.83;22.87;;;10.30;73.70;;;;;;5060606;28;20162;-77
2022/03/22 02:45:17;;;;;;;32.77;21.30;;;10.30;73.80;;;;;;5095374;28;20022;-78
2022/03/22 02:47:43;;;;;;;35.13;22.33;;;10.30;73.80;;;;;;5095269;28;20388;-78
2022/03/22 02:50:10;;;;;;;37.30;23.53;;;10.30;73.90;;;;;;5077210;28;20465;-79
2022/03/22 02:52:36;;;;;;;33.07;22.13;;;10.30;74.10;;;;;;5077298;28;20114;-78
2022/03/22 02:55:04;;;;;;;31.83;21.20;;;10.30;74.20;;;;;;5060575;28;20046;-78
2022/03/22 02:57:30;;;;;;;34.40;22.47;;;10.20;74.10;;;;;;5060686;28;20050;-78
2022/03/22 02:59:56;;;;;;;35.47;22.20;;;10.20;74.20;;;;;;5044281;28;20024;-78
2022/03/22 03:02:21;;;;;;;33.70;22.13;;;10.20;74.30;;;;;;5077059;28;20026;-77
2022/03/22 03:04:47;;;;;;;32.17;20.67;;;10.20;74.40;;;;;;5076954;28;20032;-78
2022/03/22 03:07:13;;;;;;;35.67;22.07;;;10.20;74.50;;;;;;5076897;28;20529;-77
2022/03/22 03:09:38;;;;;;;33.30;21.90;;;10.10;74.40;;;;;;5077378;28;20110;-77
2022/03/22 03:12:05;;;;;;;31.37;20.53;;;10.10;74.50;;;;;;5094869;28;20028;-77
2022/03/22 03:14:40;;;;;;;33.17;20.90;;;10.10;74.50;;;;;;5077005;28;20413;-77
2022/03/22 03:17:07;;;;;;;34.37;21.20;;;10.00;74.60;;;;;;5062635;28;20031;-77
2022/03/22 03:19:33;;;;;;;31.43;20.90;;;10.00;74.70;;;;;;5095168;28;20516;-77
2022/03/22 03:21:59;;;;;;;36.77;22.33;;;10.00;74.80;;;;;;5094613;28;20059;-77
2022/03/22 03:24:25;;;;;;;33.10;22.20;;;10.00;75.00;;;;;;5094583;28;20020;-77
2022/03/22 03:26:51;;;;;;;33.07;22.80;;;9.90;75.10;;;;;;5076257;28;20036;-77
2022/03/22 03:29:17;;;;;;;35.30;22.33;;;9.90;75.40;;;;;;5059686;28;20028;-77
2022/03/22 03:31:43;;;;;;;35.43;22.90;;;9.90;75.60;;;;;;5059635;28;20419;-77
2022/03/22 03:34:09;;;;;;;37.13;22.77;;;9.90;75.70;;;;;;5072968;28;20113;-77
2022/03/22 03:36:35;;;;;;;34.73;22.07;;;9.80;75.80;;;;;;5072968;28;20499;-77
2022/03/22 03:39:03;;;;;;;33.80;21.87;;;9.80;75.90;;;;;;5055667;28;20031;-77
2022/03/22 03:47:03;;;;;;;30.10;21.08;;;9.70;76.10;;;;;;5073689;28;20072;-77
2022/03/22 03:49:29;;;;;;;31.40;20.57;;;9.70;76.70;;;;;;5057410;28;20032;-77
2022/03/22 03:51:55;;;;;;;32.17;20.43;;;9.60;76.00;;;;;;5072579;28;20089;-77
2022/03/22 03:54:21;;;;;;;35.50;22.90;;;9.60;76.00;;;;;;5056189;28;20032;-77
2022/03/22 03:56:47;;;;;;;34.20;21.43;;;9.60;76.10;;;;;;5056327;28;20033;-77
2022/03/22 03:59:13;;;;;;;32.27;20.70;;;9.60;76.20;;;;;;5072758;28;20035;-77
2022/03/22 04:01:39;;;;;;;31.53;21.00;;;9.50;76.20;;;;;;5056506;28;20028;-77
2022/03/22 04:04:05;;;;;;;36.00;22.30;;;9.50;76.20;;;;;;5056414;28;20035;-77
2022/03/22 04:06:32;;;;;;;35.23;20.53;;;9.50;76.30;;;;;;5072488;28;20431;-77
2022/03/22 04:08:58;;;;;;;33.00;21.47;;;9.50;76.40;;;;;;5074223;28;20104;-77
2022/03/22 04:11:24;;;;;;;29.60;21.03;;;9.50;76.50;;;;;;5073514;28;20429;-77
2022/03/22 04:13:49;;;;;;;33.80;20.70;;;9.40;76.60;;;;;;5073260;28;20105;-77
2022/03/22 04:16:15;;;;;;;33.00;22.13;;;9.40;76.60;;;;;;5038792;28;20037;-77
2022/03/22 04:18:41;;;;;;;35.37;20.40;;;9.40;77.30;;;;;;5073844;28;20024;-77
2022/03/22 04:21:07;;;;;;;31.43;21.13;;;9.40;76.70;;;;;;5055395;28;20480;-77
2022/03/22 04:23:33;;;;;;;34.17;21.87;;;9.40;76.70;;;;;;5055489;28;20559;-77
2022/03/22 04:25:59;;;;;;;33.37;21.70;;;9.40;76.80;;;;;;5055279;28;20384;-77
2022/03/22 04:33:53;;;;;;;33.30;20.77;;;9.30;76.80;;;;;;5087256;28;20561;-77
2022/03/22 04:36:19;;;;;;;31.37;21.53;;;9.30;76.90;;;;;;5058883;28;20047;-77
2022/03/22 04:38:44;;;;;;;29.43;20.57;;;9.30;77.00;;;;;;5075184;28;20055;-77
2022/03/22 04:41:10;;;;;;;36.53;20.20;;;9.20;77.10;;;;;;5093479;28;20028;-77
2022/03/22 04:43:36;;;;;;;31.87;21.10;;;9.20;77.20;;;;;;5058745;28;20029;-77
2022/03/22 04:46:02;;;;;;;34.83;20.93;;;9.20;77.30;;;;;;5093809;28;20028;-77
2022/03/22 04:48:28;;;;;;;37.90;20.37;;;9.10;77.30;;;;;;5059388;28;20382;-77
2022/03/22 04:56:43;;;;;;;31.03;20.17;;;9.20;77.30;;;;;;5063325;28;20115;-77
2022/03/22 04:59:07;;;;;;;32.70;20.73;;;9.20;77.40;;;;;;5097593;28;20100;-77
2022/03/22 05:01:33;;;;;;;31.40;20.17;;;9.10;77.40;;;;;;5061996;28;20465;-77
2022/03/22 05:03:58;;;;;;;29.27;19.63;;;9.10;78.20;;;;;;5097087;28;20028;-77
2022/03/22 05:06:27;;;;;;;32.57;21.30;;;9.10;77.60;;;;;;5079100;28;20386;-77
2022/03/22 05:08:56;;;;;;;29.70;19.33;;;9.10;77.70;;;;;;5097132;28;20032;-78
2022/03/22 05:11:22;;;;;;;34.33;20.67;;;9.10;77.80;;;;;;5079151;28;20052;-77
2022/03/22 05:13:49;;;;;;;34.47;21.00;;;9.20;77.80;;;;;;5079073;28;20162;-77
2022/03/22 05:16:15;;;;;;;33.67;21.87;;;9.20;78.00;;;;;;5078711;28;20028;-77
2022/03/22 05:18:41;;;;;;;31.33;20.83;;;9.20;78.00;;;;;;5062026;28;20059;-77
2022/03/22 05:21:07;;;;;;;31.17;20.67;;;9.20;78.00;;;;;;5096839;28;20028;-78
2022/03/22 05:23:34;;;;;;;37.03;18.77;;;9.20;78.00;;;;;;5089180;28;20032;-78
2022/03/22 05:26:00;;;;;;;31.27;19.77;;;9.20;78.00;;;;;;5082985;28;20366;-77
2022/03/22 05:28:26;;;;;;;36.13;22.33;;;9.30;78.10;;;;;;5058689;28;20020;-78
2022/03/22 05:30:51;;;;;;;31.10;20.40;;;9.30;78.00;;;;;;5059618;28;20044;-78
2022/03/22 05:33:17;;;;;;;34.50;19.93;;;9.30;77.90;;;;;;5058070;28;20045;-78
2022/03/22 05:35:43;;;;;;;33.83;21.23;;;9.30;77.90;;;;;;5078737;28;20078;-78
2022/03/22 05:38:08;;;;;;;31.80;20.77;;;9.40;77.90;;;;;;5057646;28;20024;-77
2022/03/22 05:40:34;;;;;;;33.70;20.50;;;9.40;77.90;;;;;;5041026;28;20030;-77
2022/03/22 05:43:00;;;;;;;32.67;21.33;;;9.40;77.80;;;;;;5057891;28;20029;-77
2022/03/22 05:45:29;;;;;;;28.87;19.83;;;9.40;77.70;;;;;;5041638;28;20103;-78
2022/03/22 05:47:54;;;;;;;30.23;19.80;;;9.50;77.70;;;;;;5041861;28;20086;-77
2022/03/22 05:50:20;;;;;;;33.90;20.20;;;9.50;77.60;;;;;;5076163;28;20484;-77
2022/03/22 05:52:50;;;;;;;29.90;19.30;;;9.50;77.50;;;;;;5058593;28;20497;-77
2022/03/22 05:55:16;;;;;;;31.97;21.03;;;9.50;77.40;;;;;;5076105;28;20021;-77
2022/03/22 05:57:42;;;;;;;33.20;21.37;;;9.60;77.30;;;;;;5058358;28;20028;-77
2022/03/22 06:00:10;;;;;;;33.90;20.40;;;9.60;77.20;;;;;;5058198;28;20028;-77
2022/03/22 06:02:37;;;;;;;30.20;20.07;;;9.60;77.20;;;;;;5041738;28;20052;-77
2022/03/22 06:05:08;;;;;;;35.20;20.73;;;9.70;77.20;;;;;;5057679;28;20036;-77
2022/03/22 06:07:35;;;;;;;35.83;20.33;;;9.70;77.00;;;;;;5076298;28;20108;-77
2022/03/22 06:10:01;;;;;;;36.90;21.77;;;9.70;77.00;;;;;;5057719;28;20481;-77
2022/03/22 06:12:42;;;;;;;33.17;21.33;;;9.80;76.90;;;;;;5040991;28;20059;-77
2022/03/22 06:15:15;;;;;;;35.10;20.90;;;9.80;76.80;;;;;;5075692;28;20028;-77
2022/03/22 06:17:47;;;;;;;31.43;18.83;;;9.90;76.60;;;;;;5075654;28;20074;-77
2022/03/22 06:20:14;;;;;;;34.30;20.37;;;9.90;76.40;;;;;;5058729;28;20036;-77
2022/03/22 06:22:41;;;;;;;31.90;20.63;;;10.00;76.30;;;;;;5075697;28;20063;-78
2022/03/22 06:25:07;;;;;;;28.10;19.17;;;10.00;76.20;;;;;;5075944;28;20115;-76
2022/03/22 06:27:36;;;;;;;30.77;21.03;;;10.00;76.10;;;;;;5075795;28;20024;-76
2022/03/22 06:30:06;;;;;;;30.13;20.37;;;10.10;76.10;;;;;;5057517;28;20033;-77
2022/03/22 06:32:40;;;;;;;31.87;20.93;;;10.20;76.00;;;;;;5041064;28;20381;-77
2022/03/22 06:35:06;;;;;;;30.55;20.23;;;10.20;76.00;;;;;;5075014;28;20025;-77
2022/03/22 06:37:32;;;;;;;35.07;20.80;;;10.20;75.80;;;;;;5057638;28;20040;-76
2022/03/22 06:39:57;;;;;;;31.53;19.87;;;10.30;75.80;;;;;;5057720;28;20032;-78
2022/03/22 06:42:23;;;;;;;32.43;22.10;;;10.30;75.60;;;;;;5036820;28;20021;-76
2022/03/22 06:44:49;;;;;;;32.53;19.93;;;10.40;75.40;;;;;;5065764;28;20115;-76
2022/03/22 06:47:15;;;;;;;29.17;20.10;;;10.40;75.20;;;;;;5056945;28;20021;-77
2022/03/22 06:49:41;;;;;;;31.13;19.17;;;10.40;75.10;;;;;;5088147;28;20081;-77
2022/03/22 06:52:06;;;;;;;32.30;20.37;;;10.50;75.00;;;;;;5059783;28;20026;-77
2022/03/22 06:54:32;;;;;;;30.33;19.83;;;10.60;74.70;;;;;;5059782;28;20029;-77
2022/03/22 06:56:58;;;;;;;32.00;20.00;;;10.60;74.40;;;;;;5057115;28;20453;-77
2022/03/22 06:59:25;;;;;;;29.53;19.20;;;10.70;74.30;;;;;;5056957;28;20094;-78
2022/03/22 07:01:51;;;;;;;31.23;19.33;;;10.80;74.10;;;;;;5057085;28;20423;-78
2022/03/22 07:04:17;;;;;;;29.07;18.93;;;10.80;73.80;;;;;;5040569;28;20033;-78
2022/03/22 07:06:42;;;;;;;28.10;18.33;;;10.80;73.60;;;;;;5056767;28;20399;-78
2022/03/22 07:09:08;;;;;;;27.57;18.77;;;10.90;73.40;;;;;;5056602;28;20035;-78
2022/03/22 07:11:52;;;;;;;25.50;18.10;;;10.90;73.20;;;;;;5056476;28;20078;-78
2022/03/22 07:14:19;;;;;;;29.35;18.83;;;11.00;72.90;;;;;;5058665;28;20029;-78
2022/03/22 07:16:47;;;;;;;28.13;17.87;;;11.00;72.50;;;;;;5039502;28;20032;-78
2022/03/22 07:19:17;;;;;;;26.90;17.93;;;11.10;72.20;;;;;;5055924;28;20017;-78
2022/03/22 07:21:44;;;;;;;31.33;18.20;;;11.20;71.80;;;;;;5055753;28;20120;-78
2022/03/22 07:24:11;;;;;;;30.73;18.40;;;11.20;71.50;;;;;;5073663;28;20054;-76
2022/03/22 07:26:38;;;;;;;29.00;18.42;;;11.30;71.30;;;;;;5073727;28;20107;-76
2022/03/22 07:29:04;;;;;;;29.60;18.35;;;11.30;70.90;;;;;;5056254;28;20166;-76
2022/03/22 07:31:30;;;;;;;28.58;19.23;;;11.40;70.70;;;;;;5055894;28;20036;-76
2022/03/22 07:33:56;;;;;;;27.90;16.98;;;11.50;70.40;;;;;;5073568;28;20063;-76
2022/03/22 07:36:22;;;;;;;25.73;17.15;;;11.50;70.10;;;;;;5056030;28;20119;-76
2022/03/22 07:38:48;;;;;;;25.23;16.55;;;11.50;69.70;;;;;;5073922;28;20051;-76
2022/03/22 07:41:14;;;;;;;26.45;17.45;;;11.60;69.40;;;;;;5074184;28;20025;-74
2022/03/22 07:43:41;;;;;;;27.02;18.15;;;11.70;69.10;;;;;;5056005;28;20039;-74
2022/03/22 07:46:07;;;;;;;27.02;16.85;;;11.80;68.80;;;;;;5056132;28;20123;-75
2022/03/22 07:48:34;;;;;;;26.73;18.08;;;11.80;68.40;;;;;;5039262;28;20098;-76
2022/03/22 07:53:44;;;;;;;;;;;11.90;67.70;;;;;;5059261;28;20086;-76
2022/03/22 07:56:11;;;;;;;25.92;15.18;;;12.00;67.40;;;;;;5073811;28;19904;-76
2022/03/22 07:58:38;;;;;;;24.40;15.38;;;12.10;67.50;;;;;;5073610;28;20024;-76
2022/03/22 08:01:03;;;;;;;25.50;16.75;;;12.10;67.10;;;;;;5055782;28;20021;-76
2022/03/22 08:03:29;;;;;;;21.55;15.70;;;12.20;66.70;;;;;;5073541;28;20373;-76
2022/03/22 08:05:55;;;;;;;25.25;16.80;;;12.30;66.40;;;;;;5055887;28;20039;-76
2022/03/22 08:08:21;;;;;;;22.85;16.30;;;12.30;66.00;;;;;;5039154;28;20644;-76
2022/03/22 08:10:47;;;;;;;24.60;16.30;;;12.30;65.80;;;;;;5073727;28;20036;-76
2022/03/22 08:13:13;;;;;;;28.25;16.20;;;12.40;65.40;;;;;;5055417;28;20024;-76
2022/03/22 08:15:39;;;;;;;24.17;17.08;;;12.50;65.20;;;;;;5055914;28;20396;-76
2022/03/22 08:18:05;;;;;;;23.58;16.65;;;12.50;64.70;;;;;;5055386;28;20025;-77
2022/03/22 08:20:32;;;;;;;27.05;17.25;;;12.60;64.50;;;;;;5038875;28;20390;-76
2022/03/22 08:22:59;;;;;;;26.63;17.55;;;12.60;64.20;;;;;;5073480;28;20032;-77
2022/03/22 08:25:37;;;;;;;25.75;16.20;;;12.70;64.00;;;;;;5039301;28;20070;-77
2022/03/22 08:28:08;;;;;;;26.45;16.90;;;12.70;63.90;;;;;;5055429;28;20031;-77
2022/03/22 08:30:34;;;;;;;24.50;16.60;;;12.70;63.70;;;;;;5056210;28;20036;-76
2022/03/22 08:33:09;;;;;;;24.30;15.90;;;12.80;63.60;;;;;;5055398;28;20039;-76
2022/03/22 08:35:42;;;;;;;23.80;16.05;;;12.80;63.50;;;;;;5073288;28;20052;-77
2022/03/22 08:38:10;;;;;;;25.20;15.38;;;12.90;63.20;;;;;;5055944;28;20020;-76
2022/03/22 08:40:36;;;;;;;24.42;15.77;;;13.00;62.90;;;;;;5056760;28;20094;-77
2022/03/22 08:43:06;;;;;;;23.00;16.42;;;13.00;62.60;;;;;;5056572;28;20472;-76
2022/03/22 08:45:33;;;;;;;25.58;16.25;;;13.10;62.40;;;;;;5075408;28;20115;-76
2022/03/22 08:48:00;;;;;;;23.90;15.77;;;13.10;62.20;;;;;;5093413;28;20028;-77
2022/03/22 08:50:26;;;;;;;24.20;16.35;;;13.20;62.20;;;;;;5075524;28;20589;-76
2022/03/22 08:52:56;;;;;;;22.17;15.70;;;13.20;62.00;;;;;;5093153;28;20028;-76
2022/03/22 08:55:23;;;;;;;24.27;16.80;;;13.30;61.80;;;;;;5093151;28;20546;-76
2022/03/22 08:57:49;;;;;;;25.02;15.70;;;13.40;61.60;;;;;;5058729;28;20462;-76
2022/03/22 09:00:17;;;;;;;25.60;17.00;;;13.40;61.40;;;;;;5075548;28;20413;-78
2022/03/22 09:02:44;;;;;;;27.23;16.05;;;13.50;61.40;;;;;;5075095;28;20039;-78
2022/03/22 09:07:57;;;;;;;24.55;17.45;;;13.60;61.30;;;;;;5094006;28;20090;-79
2022/03/22 09:10:24;;;;;;;26.48;16.15;;;13.70;61.10;;;;;;5093507;28;20368;-78
2022/03/22 09:12:51;;;;;;;22.25;15.48;;;13.70;61.00;;;;;;5074906;28;20020;-79
2022/03/22 09:15:21;;;;;;;25.45;16.60;;;13.80;60.90;;;;;;5093370;28;20047;-78
2022/03/22 09:17:47;;;;;;;23.00;15.85;;;13.90;60.80;;;;;;5093269;28;20050;-80
2022/03/22 09:20:13;;;;;;;26.23;16.20;;;14.00;60.70;;;;;;5093392;28;20074;-78
2022/03/22 09:22:43;;;;;;;25.95;16.05;;;14.00;60.50;;;;;;5075297;28;20103;-77
2022/03/22 09:25:11;;;;;;;24.52;15.85;;;14.10;60.40;;;;;;5075544;28;20388;-78
2022/03/22 09:27:43;;;;;;;25.33;17.20;;;14.20;60.30;;;;;;5093055;28;20085;-79
2022/03/22 09:30:11;;;;;;;24.52;16.65;;;14.30;60.00;;;;;;5074831;28;20032;-80
2022/03/22 09:32:38;;;;;;;23.95;16.20;;;14.40;60.00;;;;;;5075490;28;20479;-76
2022/03/22 09:35:07;;;;;;;24.80;16.13;;;14.40;59.90;;;;;;5074552;28;20099;-76
2022/03/22 09:37:34;;;;;;;24.83;16.30;;;14.50;59.80;;;;;;5078341;28;20028;-76
2022/03/22 09:39:59;;;;;;;28.80;16.65;;;14.60;59.60;;;;;;5096510;28;20055;-76
2022/03/22 09:42:27;;;;;;;25.23;16.55;;;14.70;59.50;;;;;;5079167;28;20066;-78
2022/03/22 09:44:53;;;;;;;22.95;15.93;;;14.80;59.40;;;;;;5078725;28;20024;-78
2022/03/22 09:47:19;;;;;;;25.05;16.17;;;14.80;59.30;;;;;;5078795;28;20033;-79
2022/03/22 09:49:46;;;;;;;25.45;17.13;;;14.90;59.20;;;;;;5078335;28;20016;-79
2022/03/22 09:52:14;;;;;;;24.80;15.75;;;15.00;59.10;;;;;;5078718;28;20023;-79
2022/03/22 09:54:39;;;;;;;23.92;16.13;;;15.10;58.90;;;;;;5045334;28;20016;-79
2022/03/22 09:57:05;;;;;;;24.23;16.75;;;15.20;58.90;;;;;;5078610;28;20080;-79
2022/03/22 09:59:33;;;;;;;22.83;16.58;;;15.30;58.70;;;;;;5096801;28;20024;-79
2022/03/22 10:02:04;;;;;;;23.75;15.88;;;15.40;58.60;;;;;;5096202;28;20463;-80
2022/03/22 10:04:55;;;;;;;24.00;17.17;;;15.50;58.50;;;;;;5096824;28;20357;-78
2022/03/22 10:07:23;;;;;;;25.77;16.50;;;15.60;58.20;;;;;;5073317;28;20035;-77
2022/03/22 10:10:02;;;;;;;21.98;15.82;;;15.70;58.20;;;;;;5061745;28;20028;-80
2022/03/22 10:12:36;;;;;;;23.83;16.17;;;15.90;57.80;;;;;;5096469;28;20024;-78
2022/03/22 10:15:12;;;;;;;22.80;15.95;;;16.10;57.60;;;;;;5077979;28;20027;-78
2022/03/22 10:17:39;;;;;;;23.08;16.20;;;16.30;57.40;;;;;;5095836;28;20020;-80
2022/03/22 10:20:07;;;;;;;24.00;14.65;;;16.50;57.30;;;;;;5061307;28;20149;-79
2022/03/22 10:22:34;;;;;;;25.60;15.52;;;16.70;56.80;;;;;;5078589;28;20020;-79
2022/03/22 10:25:03;;;;;;;23.55;15.23;;;16.90;56.40;;;;;;5095724;28;20028;-79
2022/03/22 10:27:32;;;;;;;24.25;15.13;;;17.20;55.90;;;;;;5095831;28;20089;-79
2022/03/22 10:30:00;;;;;;;21.08;14.85;;;17.40;55.50;;;;;;5077591;28;20024;-78
2022/03/22 10:32:39;;;;;;;24.75;16.15;;;17.70;55.20;;;;;;5096136;28;20078;-78
2022/03/22 10:35:11;;;;;;;22.92;16.75;;;17.90;54.60;;;;;;5095504;28;20044;-77
2022/03/22 10:37:38;;;;;;;20.77;14.48;;;18.10;54.30;;;;;;5077447;28;20028;-76
2022/03/22 10:40:24;;;;;;;21.50;15.05;;;18.40;54.00;;;;;;5095638;28;20024;-78
2022/03/22 10:42:52;;;;;;;21.42;15.07;;;18.70;53.30;;;;;;5095527;28;20032;-77
2022/03/22 10:45:17;;;;;;;23.13;15.90;;;18.90;53.10;;;;;;5077301;28;20032;-77
2022/03/22 10:47:43;;;;;;;23.08;15.07;;;19.10;52.70;;;;;;5060408;28;20448;-77
2022/03/22 10:50:09;;;;;;;20.25;15.15;;;19.40;52.20;;;;;;5077683;28;20516;-78
2022/03/22 10:52:50;;;;;;;23.88;15.38;;;19.60;51.70;;;;;;5095367;28;20468;-76
2022/03/22 10:55:19;;;;;;;21.30;15.15;;;19.80;51.20;;;;;;5095353;28;20031;-78
2022/03/22 10:57:48;;;;;;;24.40;15.30;;;20.00;51.20;;;;;;5095476;28;20368;-79
2022/03/22 11:00:14;;;;;;;23.00;15.45;;;20.20;50.70;;;;;;5077491;28;20016;-79
2022/03/22 11:02:42;;;;;;;20.83;14.27;;;20.50;50.30;;;;;;5077591;28;20368;-78
2022/03/22 11:05:08;;;;;;;25.27;15.20;;;20.70;49.70;;;;;;5077311;28;20532;-77
2022/03/22 11:07:40;;;;;;;23.65;14.43;;;20.90;49.20;;;;;;5077107;28;20032;-77
2022/03/22 11:10:06;;;;;;;20.92;14.48;;;21.20;48.70;;;;;;5094960;28;20028;-78
2022/03/22 11:12:33;;;;;;;24.58;15.07;;;21.40;48.50;;;;;;5076915;28;20020;-79
2022/03/22 11:15:00;;;;;;;22.08;15.43;;;21.60;47.90;;;;;;5076647;28;20016;-78
2022/03/22 11:17:28;;;;;;;18.48;14.27;;;21.70;47.30;;;;;;5076441;28;20107;-79
2022/03/22 11:19:55;;;;;;;28.05;15.63;;;22.00;46.90;;;;;;5094705;28;20024;-77
2022/03/22 11:22:22;;;;;;;20.98;14.25;;;22.20;46.40;;;;;;5076369;28;20368;-78
2022/03/22 11:24:48;;;;;;;22.02;15.30;;;22.40;45.90;;;;;;5076665;28;20032;-80
2022/03/22 11:27:14;;;;;;;24.35;14.77;;;22.70;45.60;;;;;;5076347;28;20036;-79
2022/03/22 11:29:41;;;;;;;19.85;14.95;;;22.90;45.00;;;;;;5076210;28;20034;-78
2022/03/22 11:34:56;;;;;;;19.45;14.18;;;23.40;44.30;;;;;;5094484;28;20125;-79
2022/03/22 11:37:33;;;;;;;20.02;13.75;;;23.50;44.20;;;;;;5076164;28;20030;-79
2022/03/22 11:42:59;;;;;;;19.48;13.55;;;23.80;43.70;;;;;;5094493;28;20169;-78
2022/03/22 11:45:26;;;;;;;18.70;12.77;;;24.10;42.90;;;;;;5076944;28;20028;-76
2022/03/22 11:47:53;;;;;;;20.48;13.50;;;24.30;43.10;;;;;;5076430;28;20385;-77
2022/03/22 11:50:22;;;;;;;19.25;14.23;;;24.40;42.70;;;;;;5094544;28;20023;-76
2022/03/22 11:52:54;;;;;;;20.58;14.18;;;24.70;42.30;;;;;;5094233;28;20055;-76
2022/03/22 11:55:25;;;;;;;18.40;13.40;;;24.90;41.90;;;;;;5076140;28;20016;-76
2022/03/22 11:57:56;;;;;;;19.90;13.77;;;25.10;41.50;;;;;;5075646;28;20119;-75
2022/03/22 12:00:46;;;;;;;20.50;13.65;;;25.30;41.00;;;;;;5075498;28;20020;-79
2022/03/22 12:03:15;;;;;;;17.45;13.20;;;25.50;40.20;;;;;;5094186;28;20028;-79
2022/03/22 12:05:42;;;;;;;21.05;13.73;;;25.70;40.40;;;;;;5093999;28;20036;-79
2022/03/22 12:08:09;;;;;;;18.92;13.52;;;26.00;40.10;;;;;;5076211;28;20105;-79
2022/03/22 12:10:35;;;;;;;20.08;14.48;;;26.10;40.20;;;;;;5094212;28;20055;-81
2022/03/22 12:13:02;;;;;;;19.30;14.25;;;26.30;39.30;;;;;;5093999;28;20038;-79
2022/03/22 12:15:27;;;;;;;19.48;14.70;;;26.40;38.90;;;;;;5075654;28;20617;-79
2022/03/22 12:17:54;;;;;;;21.88;14.85;;;26.50;38.60;;;;;;5042362;28;20027;-79
2022/03/22 12:20:22;;;;;;;20.45;13.43;;;26.70;38.40;;;;;;5093768;28;20422;-79
2022/03/22 12:22:50;;;;;;;17.67;13.27;;;26.70;38.20;;;;;;5076075;28;20043;-79
2022/03/22 12:25:24;;;;;;;15.90;11.93;;;26.80;38.10;;;;;;5093685;28;20099;-79
2022/03/22 12:27:55;;;;;;;17.98;12.43;;;27.00;37.40;;;;;;5075827;28;20028;-79
2022/03/22 12:30:23;;;;;;;16.13;11.70;;;27.10;37.20;;;;;;5075389;28;20103;-79
2022/03/22 12:32:51;;;;;;;19.23;13.48;;;27.30;37.00;;;;;;5075180;28;20020;-79
2022/03/22 12:35:17;;;;;;;16.73;11.85;;;27.40;36.70;;;;;;5075842;28;20032;-79
2022/03/22 12:37:43;;;;;;;17.67;12.25;;;27.50;36.40;;;;;;5093801;28;20020;-79
2022/03/22 12:40:09;;;;;;;18.45;13.23;;;27.60;36.10;;;;;;5075461;28;20054;-80
2022/03/22 12:42:35;;;;;;;19.70;11.77;;;27.80;35.90;;;;;;5093804;28;20376;-79
2022/03/22 12:45:00;;;;;;;18.85;12.90;;;27.90;35.70;;;;;;5093559;28;20024;-79
2022/03/22 12:47:27;;;;;;;18.60;12.80;;;28.10;35.50;;;;;;5093796;28;20353;-79
2022/03/22 12:49:52;;;;;;;16.02;12.18;;;28.20;35.20;;;;;;5075106;28;20033;-79
2022/03/22 12:52:18;;;;;;;15.88;11.80;;;28.30;34.80;;;;;;5075476;28;20077;-79
2022/03/22 12:54:44;;;;;;;21.33;12.18;;;28.40;34.50;;;;;;5075752;28;20039;-79
2022/03/22 12:57:15;;;;;;;17.23;13.52;;;28.60;34.50;;;;;;5075542;28;20074;-79
2022/03/22 12:59:42;;;;;;;17.45;11.80;;;28.80;34.10;;;;;;5075486;28;20035;-79
2022/03/22 13:02:09;;;;;;;15.38;11.60;;;29.00;34.10;;;;;;5058732;28;20059;-79